createdAt,value
2022-08-17T00:00:34.513Z,35.35
2022-08-17T00:03:10.322Z,41.95
2022-08-17T00:05:45.970Z,39.47
2022-08-17T00:08:15.843Z,34.75
2022-08-17T00:10:45.298Z,42.20
2022-08-17T00:13:19.681Z,39.92
2022-08-17T00:15:47.380Z,34.90
2022-08-17T00:19:06.324Z,37.05
2022-08-17T00:21:02.912Z,39.55
2022-08-17T00:23:30.266Z,42.17
2022-08-17T00:25:57.022Z,41.88
2022-08-17T00:28:24.158Z,41.13
2022-08-17T00:30:53.525Z,37.95
2022-08-17T00:33:27.710Z,44.13
2022-08-17T00:35:56.692Z,41.20
2022-08-17T00:38:25.620Z,42.42
2022-08-17T00:40:59.170Z,40.83
2022-08-17T00:43:33.217Z,42.05
2022-08-17T00:46:09.445Z,36.72
2022-08-17T00:48:37.600Z,43.85
2022-08-17T00:51:12.390Z,48.15
2022-08-17T00:53:44.574Z,48.13
2022-08-17T00:56:21.054Z,47.05
2022-08-17T00:58:52.317Z,44.33
2022-08-17T01:01:21.169Z,42.40
2022-08-17T01:03:52.110Z,40.35
2022-08-17T01:06:21.263Z,42.73
2022-08-17T01:08:52.110Z,45.10
2022-08-17T01:11:25.388Z,40.40
2022-08-17T01:13:52.671Z,45.63
2022-08-17T01:16:30.859Z,37.50
2022-08-17T01:19:06.588Z,42.33
2022-08-17T01:21:41.427Z,38.47
2022-08-17T01:24:09.030Z,40.77
2022-08-17T01:26:40.408Z,35.10
2022-08-17T01:29:07.549Z,40.10
2022-08-17T01:31:38.705Z,43.83
2022-08-17T01:34:09.630Z,38.70
2022-08-17T01:36:39.292Z,40.23
2022-08-17T01:39:11.293Z,36.23
2022-08-17T01:41:41.072Z,37.67
2022-08-17T01:44:08.273Z,35.27
2022-08-17T01:46:37.008Z,39.23
2022-08-17T01:49:10.467Z,36.83
2022-08-17T01:51:38.184Z,36.60
2022-08-17T01:54:10.748Z,38.17
2022-08-17T01:56:41.929Z,38.87
2022-08-17T01:59:08.963Z,42.10
2022-08-17T02:01:37.949Z,42.53
2022-08-17T02:04:06.060Z,39.00
2022-08-17T02:06:45.129Z,40.30
2022-08-17T02:09:21.718Z,34.60
2022-08-17T02:11:50.866Z,38.07
2022-08-17T02:14:18.050Z,59.17
2022-08-17T02:16:44.807Z,61.13
2022-08-17T02:19:13.978Z,51.20
2022-08-17T02:21:41.736Z,81.83
2022-08-17T02:24:16.441Z,80.13
2022-08-17T02:26:43.752Z,93.90
2022-08-17T02:29:10.472Z,91.70
2022-08-17T02:31:37.956Z,113.90
2022-08-17T02:34:06.469Z,88.83
2022-08-17T02:36:35.405Z,78.67
2022-08-17T02:39:08.892Z,85.10
2022-08-17T02:41:36.718Z,105.87
2022-08-17T02:44:04.122Z,70.73
2022-08-17T02:46:32.373Z,79.93
2022-08-17T02:48:59.549Z,72.27
2022-08-17T02:51:27.012Z,88.20
2022-08-17T02:54:40.659Z,83.80
2022-08-17T02:56:41.035Z,51.53
2022-08-17T02:59:08.036Z,96.50
2022-08-17T03:01:35.473Z,87.97
2022-08-17T03:04:03.462Z,73.13
2022-08-17T03:06:32.544Z,90.30
2022-08-17T03:08:59.461Z,64.00
2022-08-17T03:11:26.546Z,67.27
2022-08-17T03:13:53.252Z,69.37
2022-08-17T03:16:20.404Z,93.27
2022-08-17T03:18:47.274Z,66.23
2022-08-17T03:21:14.128Z,58.00
2022-08-17T03:23:43.703Z,86.23
2022-08-17T03:26:13.483Z,56.63
2022-08-17T03:28:42.816Z,52.97
2022-08-17T03:31:10.134Z,52.30
2022-08-17T03:33:38.052Z,44.20
2022-08-17T03:36:05.193Z,49.40
2022-08-17T03:38:39.224Z,60.63
2022-08-17T03:41:07.049Z,48.57
2022-08-17T03:43:34.666Z,44.50
2022-08-17T03:46:34.619Z,55.80
2022-08-17T03:49:26.261Z,39.33
2022-08-17T03:52:12.444Z,67.80
2022-08-17T03:54:57.833Z,52.20
2022-08-17T03:57:25.791Z,45.60
2022-08-17T03:59:53.787Z,57.70
2022-08-17T04:02:28.309Z,42.47
2022-08-17T04:04:55.367Z,53.10
2022-08-17T04:07:25.704Z,53.73
2022-08-17T04:09:52.679Z,57.63
2022-08-17T04:12:22.873Z,71.33
2022-08-17T04:14:53.346Z,59.20
2022-08-17T04:17:24.594Z,63.60
2022-08-17T04:19:52.036Z,58.50
2022-08-17T04:22:31.819Z,47.67
2022-08-17T04:25:17.199Z,58.93
2022-08-17T04:27:44.065Z,54.10
2022-08-17T04:30:11.680Z,62.50
2022-08-17T04:33:05.901Z,56.70
2022-08-17T04:35:37.121Z,61.80
2022-08-17T04:38:04.432Z,64.07
2022-08-17T04:40:49.846Z,71.47
2022-08-17T04:43:19.847Z,73.80
2022-08-17T04:46:04.815Z,73.10
2022-08-17T04:48:37.057Z,69.80
2022-08-17T04:51:17.259Z,34.20
2022-08-17T04:53:47.638Z,46.13
2022-08-17T04:56:21.572Z,42.37
2022-08-17T04:58:50.931Z,49.93
2022-08-17T05:01:24.127Z,43.93
2022-08-17T05:03:53.526Z,50.57
2022-08-17T05:06:20.808Z,28.90
2022-08-17T05:08:47.683Z,46.93
2022-08-17T05:11:14.917Z,67.90
2022-08-17T05:13:41.929Z,29.70
2022-08-17T05:16:09.223Z,30.40
2022-08-17T05:18:37.298Z,60.73
2022-08-17T05:21:04.472Z,31.23
2022-08-17T05:23:33.689Z,40.93
2022-08-17T05:26:10.355Z,32.38
2022-08-17T05:28:48.023Z,54.57
2022-08-17T05:31:14.929Z,34.93
2022-08-17T05:33:46.248Z,40.87
2022-08-17T05:36:37.920Z,34.92
2022-08-17T05:39:02.840Z,46.10
2022-08-17T05:41:29.599Z,46.37
2022-08-17T05:43:56.757Z,29.20
2022-08-17T05:46:50.819Z,45.97
2022-08-17T05:49:22.669Z,42.10
2022-08-17T05:51:58.397Z,66.13
2022-08-17T05:54:47.071Z,53.77
2022-08-17T05:57:25.850Z,46.23
2022-08-17T06:00:01.601Z,47.60
2022-08-17T06:02:47.999Z,54.10
2022-08-17T06:05:53.671Z,34.33
2022-08-17T06:08:38.347Z,56.50
2022-08-17T06:11:27.132Z,43.67
2022-08-17T06:14:13.273Z,44.90
2022-08-17T06:16:44.999Z,44.70
2022-08-17T06:19:27.830Z,45.40
2022-08-17T06:21:55.120Z,46.60
2022-08-17T06:24:40.679Z,38.88
2022-08-17T06:27:17.958Z,36.57
2022-08-17T06:29:58.159Z,33.67
2022-08-17T06:32:25.641Z,35.92
2022-08-17T06:34:53.636Z,43.88
2022-08-17T06:37:39.126Z,39.22
2022-08-17T06:40:28.259Z,38.90
2022-08-17T06:43:14.810Z,36.50
2022-08-17T06:45:50.452Z,39.92
2022-08-17T06:48:26.855Z,45.83
2022-08-17T06:51:11.105Z,36.60
2022-08-17T06:54:07.037Z,36.63
2022-08-17T06:56:52.787Z,40.95
2022-08-17T06:59:53.195Z,36.92
2022-08-17T07:03:00.001Z,37.60
2022-08-17T07:05:38.782Z,37.50
2022-08-17T07:08:26.406Z,38.10
2022-08-17T07:11:00.936Z,37.00
2022-08-17T07:13:59.988Z,40.15
2022-08-17T07:16:30.658Z,38.75
2022-08-17T07:18:59.339Z,42.47
2022-08-17T07:21:28.990Z,37.55
2022-08-17T07:24:03.040Z,41.25
2022-08-17T07:26:29.780Z,39.97
2022-08-17T07:28:57.261Z,40.85
2022-08-17T07:31:28.588Z,34.25
2022-08-17T07:34:06.732Z,39.95
2022-08-17T07:36:34.416Z,37.47
2022-08-17T07:39:02.957Z,35.08
2022-08-17T07:41:57.826Z,35.78
2022-08-17T07:44:20.879Z,40.28
2022-08-17T07:47:12.050Z,42.13
2022-08-17T07:49:44.291Z,41.05
2022-08-17T07:52:48.045Z,44.65
2022-08-17T07:55:31.024Z,41.35
2022-08-17T07:57:59.150Z,37.50
2022-08-17T08:00:31.754Z,42.00
2022-08-17T08:03:18.461Z,37.63
2022-08-17T08:05:55.968Z,40.13
2022-08-17T08:08:28.508Z,37.83
2022-08-17T08:11:07.262Z,45.33
2022-08-17T08:13:40.402Z,43.25
2022-08-17T08:16:29.713Z,39.63
2022-08-17T08:18:59.751Z,38.03
2022-08-17T08:21:54.826Z,41.75
2022-08-17T08:24:36.720Z,38.33
2022-08-17T08:27:23.224Z,41.58
2022-08-17T08:30:00.150Z,39.55
2022-08-17T08:33:01.532Z,37.28
2022-08-17T08:35:29.657Z,34.83
2022-08-17T08:38:29.302Z,34.13
2022-08-17T08:41:02.509Z,34.08
2022-08-17T08:43:38.077Z,35.20
2022-08-17T08:46:35.525Z,34.17
2022-08-17T08:49:59.516Z,30.98
2022-08-17T08:52:31.045Z,28.63
2022-08-17T08:55:41.090Z,31.83
2022-08-17T08:58:31.801Z,30.75
2022-08-17T09:01:06.245Z,32.05
2022-08-17T09:04:11.839Z,26.55
2022-08-17T09:06:58.144Z,33.88
2022-08-17T09:09:42.617Z,30.55
2022-08-17T09:12:09.386Z,30.90
2022-08-17T09:14:48.657Z,34.95
2022-08-17T09:17:36.281Z,29.88
2022-08-17T09:20:28.189Z,34.03
2022-08-17T09:23:07.118Z,36.60
2022-08-17T09:25:49.813Z,32.53
2022-08-17T09:28:27.234Z,31.27
2022-08-17T09:31:03.547Z,27.55
2022-08-17T09:33:33.797Z,34.67
2022-08-17T09:36:11.518Z,35.58
2022-08-17T09:38:56.509Z,28.70
2022-08-17T09:41:29.355Z,32.60
2022-08-17T09:44:22.715Z,31.65
2022-08-17T09:47:07.380Z,33.08
2022-08-17T09:50:11.573Z,27.88
2022-08-17T09:52:38.298Z,29.58
2022-08-17T09:55:06.460Z,27.80
2022-08-17T09:57:46.553Z,28.95
2022-08-17T10:00:21.663Z,22.40
2022-08-17T10:03:19.908Z,25.27
2022-08-17T10:06:21.798Z,23.98
2022-08-17T10:09:02.226Z,28.50
2022-08-17T10:12:13.580Z,24.73
2022-08-17T10:14:59.250Z,28.27
2022-08-17T10:18:04.126Z,28.90
2022-08-17T10:20:49.643Z,24.55
2022-08-17T10:23:45.501Z,20.77
2022-08-17T10:26:23.136Z,25.40
2022-08-17T10:28:58.708Z,17.33
2022-08-17T10:31:42.395Z,17.65
2022-08-17T10:34:42.072Z,19.75
2022-08-17T10:37:46.557Z,21.52
2022-08-17T10:40:37.019Z,22.33
2022-08-17T10:43:44.673Z,16.88
2022-08-17T10:46:42.403Z,25.48
2022-08-17T10:49:18.372Z,21.80
2022-08-17T10:51:47.975Z,19.15
2022-08-17T10:54:39.329Z,20.50
2022-08-17T10:57:32.116Z,16.73
2022-08-17T11:00:00.814Z,16.25
2022-08-17T11:02:50.022Z,17.92
2022-08-17T11:05:43.484Z,19.40
2022-08-17T11:08:22.992Z,17.88
2022-08-17T11:10:52.948Z,15.25
2022-08-17T11:16:08.943Z,15.93
2022-08-17T11:18:57.252Z,15.43
2022-08-17T11:22:07.085Z,17.60
2022-08-17T11:24:33.680Z,16.42
2022-08-17T11:27:02.926Z,14.98
2022-08-17T11:29:37.505Z,14.95
2022-08-17T11:32:12.530Z,11.77
2022-08-17T11:34:44.618Z,14.10
2022-08-17T11:37:11.501Z,15.18
2022-08-17T11:40:05.463Z,17.17
2022-08-17T11:42:50.759Z,11.68
2022-08-17T11:45:32.403Z,11.38
2022-08-17T11:48:55.297Z,14.05
2022-08-17T11:51:36.366Z,12.23
2022-08-17T11:56:52.986Z,12.40
2022-08-17T11:59:35.965Z,12.43
2022-08-17T12:02:35.217Z,16.80
2022-08-17T12:05:11.961Z,12.60
2022-08-17T12:07:46.388Z,11.07
2022-08-17T12:10:17.739Z,14.20
2022-08-17T12:12:47.155Z,12.70
2022-08-17T12:15:21.952Z,13.15
2022-08-17T12:17:54.778Z,11.55
2022-08-17T12:20:24.401Z,15.70
2022-08-17T12:23:09.772Z,13.43
2022-08-17T12:25:56.853Z,13.75
2022-08-17T12:28:33.153Z,18.85
2022-08-17T12:31:05.938Z,13.07
2022-08-17T12:33:35.976Z,14.68
2022-08-17T12:36:08.927Z,16.15
2022-08-17T12:38:38.222Z,18.30
2022-08-17T12:41:25.976Z,17.30
2022-08-17T12:44:05.049Z,16.73
2022-08-17T12:46:44.766Z,13.85
2022-08-17T12:49:33.099Z,14.70
2022-08-17T12:52:25.727Z,16.85
2022-08-17T12:55:02.021Z,20.52
2022-08-17T12:57:43.660Z,19.65
2022-08-17T13:00:17.645Z,16.17
2022-08-17T13:02:48.626Z,18.80
2022-08-17T13:05:27.684Z,17.83
2022-08-17T13:07:56.305Z,13.90
2022-08-17T13:10:33.440Z,13.82
2022-08-17T13:13:17.619Z,17.60
2022-08-17T13:15:54.438Z,15.98
2022-08-17T13:18:36.339Z,13.70
2022-08-17T13:21:03.180Z,17.92
2022-08-17T13:23:31.405Z,14.75
2022-08-17T13:26:09.196Z,17.98
2022-08-17T13:28:37.544Z,14.02
2022-08-17T13:31:39.420Z,12.50
2022-08-17T13:35:02.763Z,15.35
2022-08-17T13:37:35.204Z,17.00
2022-08-17T13:40:21.776Z,13.02
2022-08-17T13:42:54.011Z,14.18
2022-08-17T13:45:35.390Z,14.98
2022-08-17T13:48:20.867Z,13.02
2022-08-17T13:50:56.632Z,12.88
2022-08-17T13:53:29.573Z,11.90
2022-08-17T13:56:33.363Z,14.13
2022-08-17T13:59:06.113Z,13.43
2022-08-17T14:01:39.524Z,12.63
2022-08-17T14:04:12.844Z,14.20
2022-08-17T14:06:53.355Z,16.13
2022-08-17T14:09:25.555Z,16.98
2022-08-17T14:11:54.109Z,16.15
2022-08-17T14:14:23.131Z,19.10
2022-08-17T14:16:51.841Z,21.02
2022-08-17T14:19:22.043Z,16.48
2022-08-17T14:21:49.587Z,15.38
2022-08-17T14:24:43.952Z,16.60
2022-08-17T14:27:12.118Z,16.63
2022-08-17T14:29:41.111Z,19.85
2022-08-17T14:32:17.107Z,22.02
2022-08-17T14:34:45.172Z,15.57
2022-08-17T14:37:12.501Z,17.63
2022-08-17T14:39:39.523Z,18.90
2022-08-17T14:42:06.466Z,17.67
2022-08-17T14:44:33.346Z,23.98
2022-08-17T14:47:00.012Z,24.10
2022-08-17T14:49:27.050Z,21.13
2022-08-17T14:51:53.990Z,21.42
2022-08-17T14:54:33.542Z,22.85
2022-08-17T14:57:22.495Z,20.70
2022-08-17T14:59:54.231Z,25.38
2022-08-17T15:02:29.481Z,23.30
2022-08-17T15:05:05.815Z,21.73
2022-08-17T15:07:32.521Z,22.45
2022-08-17T15:10:01.523Z,22.85
2022-08-17T15:12:33.342Z,22.02
2022-08-17T15:15:05.434Z,20.23
2022-08-17T15:17:44.736Z,17.58
2022-08-17T15:20:25.585Z,21.20
2022-08-17T15:22:56.093Z,20.38
2022-08-17T15:25:24.997Z,18.48
2022-08-17T15:27:52.254Z,21.10
2022-08-17T15:30:20.008Z,20.65
2022-08-17T15:32:54.002Z,19.52
2022-08-17T15:35:27.384Z,22.05
2022-08-17T15:38:04.941Z,17.90
2022-08-17T15:40:37.263Z,22.27
2022-08-17T15:43:11.282Z,19.52
2022-08-17T15:45:39.038Z,22.92
2022-08-17T15:48:05.877Z,17.80
2022-08-17T15:50:32.674Z,21.25
2022-08-17T15:53:01.180Z,20.83
2022-08-17T15:55:30.541Z,18.88
2022-08-17T15:57:57.250Z,19.15
2022-08-17T16:00:24.143Z,22.75
2022-08-17T16:03:45.965Z,20.58
2022-08-17T16:05:40.800Z,16.80
2022-08-17T16:08:08.143Z,14.90
2022-08-17T16:10:36.100Z,13.52
2022-08-17T16:13:04.404Z,13.45
2022-08-17T16:15:31.737Z,16.70
2022-08-17T16:17:58.952Z,16.08
2022-08-17T16:20:26.170Z,12.77
2022-08-17T16:22:54.197Z,15.95
2022-08-17T16:25:47.230Z,12.02
2022-08-17T16:28:12.960Z,14.60
2022-08-17T16:30:41.290Z,13.88
2022-08-17T16:33:11.386Z,15.10
2022-08-17T16:35:38.882Z,13.02
2022-08-17T16:38:07.075Z,15.23
2022-08-17T16:40:36.112Z,12.60
2022-08-17T16:43:04.378Z,13.43
2022-08-17T16:45:36.570Z,12.60
2022-08-17T16:48:03.981Z,13.63
2022-08-17T16:50:32.041Z,15.88
2022-08-17T16:53:16.220Z,14.30
2022-08-17T16:55:47.382Z,14.15
2022-08-17T16:58:15.242Z,14.77
2022-08-17T17:00:44.419Z,12.95
2022-08-17T17:03:18.949Z,13.32
2022-08-17T17:06:03.565Z,12.20
2022-08-17T17:08:38.321Z,13.43
2022-08-17T17:11:14.919Z,15.50
2022-08-17T17:13:54.442Z,14.45
2022-08-17T17:16:29.276Z,14.43
2022-08-17T17:19:14.480Z,16.23
2022-08-17T17:22:04.805Z,13.23
2022-08-17T17:24:36.921Z,18.05
2022-08-17T17:27:15.833Z,13.40
2022-08-17T17:30:13.929Z,15.63
2022-08-17T17:32:54.633Z,15.77
2022-08-17T17:35:53.951Z,15.80
2022-08-17T17:38:29.188Z,15.15
2022-08-17T17:41:03.039Z,14.48
2022-08-17T17:43:39.626Z,11.35
2022-08-17T17:46:26.746Z,16.40
2022-08-17T17:49:09.504Z,10.10
2022-08-17T17:52:09.606Z,14.13
2022-08-17T17:55:05.281Z,12.43
2022-08-17T17:57:45.048Z,12.30
2022-08-17T18:00:22.041Z,21.52
2022-08-17T18:03:25.905Z,12.18
2022-08-17T18:06:05.096Z,14.20
2022-08-17T18:11:25.119Z,16.70
2022-08-17T18:14:19.930Z,21.25
2022-08-17T18:16:51.526Z,20.58
2022-08-17T18:19:25.000Z,19.33
2022-08-17T18:22:01.360Z,19.45
2022-08-17T18:24:34.459Z,21.42
2022-08-17T18:27:02.999Z,20.00
2022-08-17T18:29:44.596Z,26.30
2022-08-17T18:32:15.950Z,21.83
2022-08-17T18:34:47.750Z,23.38
2022-08-17T18:37:32.082Z,27.35
2022-08-17T18:39:58.989Z,24.13
2022-08-17T18:42:29.664Z,23.60
2022-08-17T18:44:56.435Z,22.42
2022-08-17T18:47:28.684Z,23.15
2022-08-17T18:50:21.237Z,22.27
2022-08-17T18:52:48.696Z,24.83
2022-08-17T18:55:21.457Z,20.17
2022-08-17T18:57:55.650Z,24.40
2022-08-17T19:00:39.400Z,22.90
2022-08-17T19:03:15.262Z,24.42
2022-08-17T19:05:43.349Z,22.95
2022-08-17T19:08:23.863Z,21.45
2022-08-17T19:10:59.534Z,23.42
2022-08-17T19:13:35.340Z,21.13
2022-08-17T19:16:14.162Z,18.40
2022-08-17T19:18:49.378Z,22.67
2022-08-17T19:21:22.871Z,21.77
2022-08-17T19:24:00.602Z,18.42
2022-08-17T19:26:54.646Z,18.80
2022-08-17T19:29:44.202Z,22.27
2022-08-17T19:32:15.833Z,15.93
2022-08-17T19:34:44.830Z,14.23
2022-08-17T19:37:17.537Z,19.70
2022-08-17T19:40:00.186Z,15.10
2022-08-17T19:42:37.281Z,15.10
2022-08-17T19:45:16.198Z,12.52
2022-08-17T19:47:59.485Z,14.18
2022-08-17T19:50:41.139Z,9.05
2022-08-17T19:53:47.806Z,7.88
2022-08-17T19:56:35.302Z,10.65
2022-08-17T19:59:10.946Z,9.02
2022-08-17T20:01:43.579Z,8.48
2022-08-17T20:04:32.876Z,9.13
2022-08-17T20:07:06.224Z,10.63
2022-08-17T20:09:44.925Z,11.77
2022-08-17T20:12:19.197Z,8.20
2022-08-17T20:15:18.421Z,9.60
2022-08-17T20:17:48.253Z,7.53
2022-08-17T20:20:21.421Z,12.93
2022-08-17T20:22:58.625Z,10.63
2022-08-17T20:25:54.707Z,13.95
2022-08-17T20:28:29.544Z,19.88
2022-08-17T20:30:59.889Z,22.25
2022-08-17T20:33:30.537Z,23.13
2022-08-17T20:36:24.289Z,16.30
2022-08-17T20:38:57.192Z,9.75
2022-08-17T20:41:28.394Z,7.75
2022-08-17T20:43:58.770Z,5.25
2022-08-17T20:46:37.967Z,8.80
2022-08-17T20:49:10.822Z,9.10
2022-08-17T20:52:01.441Z,10.73
2022-08-17T20:54:41.482Z,4.82
2022-08-17T20:57:14.086Z,8.20
2022-08-17T20:59:44.235Z,4.45
2022-08-17T21:02:19.445Z,5.80
2022-08-17T21:04:54.370Z,4.68
2022-08-17T21:07:24.058Z,4.38
2022-08-17T21:09:51.249Z,8.15
2022-08-17T21:12:42.530Z,6.47
2022-08-17T21:15:32.505Z,7.10
2022-08-17T21:18:23.349Z,7.80
2022-08-17T21:21:15.367Z,7.05
2022-08-17T21:24:06.964Z,9.00
2022-08-17T21:26:50.669Z,7.28
2022-08-17T21:29:31.467Z,7.63
2022-08-17T21:31:59.600Z,6.95
2022-08-17T21:34:35.059Z,10.65
2022-08-17T21:37:19.938Z,8.70
2022-08-17T21:40:11.378Z,9.68
2022-08-17T21:42:46.696Z,8.48
2022-08-17T21:45:22.531Z,7.90
2022-08-17T21:47:52.006Z,8.80
2022-08-17T21:50:22.829Z,8.23
2022-08-17T21:52:53.928Z,10.27
2022-08-17T21:55:31.009Z,9.85
2022-08-17T21:58:13.699Z,8.13
2022-08-17T22:00:44.481Z,8.40
2022-08-17T22:03:24.204Z,9.73
2022-08-17T22:05:51.478Z,10.98
2022-08-17T22:08:23.731Z,10.07
2022-08-17T22:10:51.782Z,12.30
2022-08-17T22:13:18.429Z,8.73
2022-08-17T22:16:28.969Z,7.65
2022-08-17T22:18:58.782Z,8.40
2022-08-17T22:21:26.853Z,10.77
2022-08-17T22:24:20.353Z,13.82
2022-08-17T22:27:10.378Z,9.55
2022-08-17T22:30:00.452Z,9.27
2022-08-17T22:32:36.056Z,7.47
2022-08-17T22:35:34.394Z,9.00
2022-08-17T22:38:19.485Z,7.88
2022-08-17T22:40:49.806Z,10.15
2022-08-17T22:43:21.287Z,10.18
2022-08-17T22:45:55.661Z,5.85
2022-08-17T22:48:27.129Z,7.80
2022-08-17T22:51:12.780Z,6.97
2022-08-17T22:54:17.944Z,12.15
2022-08-17T22:57:20.189Z,8.05
2022-08-17T22:59:50.604Z,9.00
2022-08-17T23:02:19.645Z,8.70
2022-08-17T23:04:53.509Z,9.02
2022-08-17T23:07:21.684Z,9.07
2022-08-17T23:09:48.557Z,8.35
2022-08-17T23:12:21.708Z,13.75
2022-08-17T23:14:51.390Z,15.20
2022-08-17T23:17:18.238Z,19.85
2022-08-17T23:19:45.431Z,21.35
2022-08-17T23:22:15.437Z,15.05
2022-08-17T23:24:46.912Z,9.90
2022-08-17T23:27:13.684Z,16.52
2022-08-17T23:29:42.024Z,11.15
2022-08-17T23:32:14.982Z,12.88
2022-08-17T23:34:43.405Z,13.50
2022-08-17T23:37:11.652Z,14.77
2022-08-17T23:39:39.441Z,12.93
2022-08-17T23:42:08.644Z,12.98
2022-08-17T23:44:37.559Z,16.98
2022-08-17T23:47:04.908Z,18.67
2022-08-17T23:49:32.360Z,14.15
2022-08-17T23:52:01.813Z,12.93
2022-08-17T23:54:38.604Z,14.13
2022-08-17T23:57:05.331Z,14.10
2022-08-17T23:59:33.898Z,13.35
